Time;durP1;ratioP1;P1;durP2;ratioP2;P2;SDS_P1;SDS_P2;PMS_P1;PMS_P2;Temp;Humidity;BMP_temperature;BMP_pressure;BME280_temperature;BME280_humidity;BME280_pressure;Samples;Min_cycle;Max_cycle;Signal;HPM_P1;HPM_P2
2022/02/25 00:02:25;;;;;;;6.80;3.65;;;;;;;-2.38;76.43;96823.06;5095017;28;20474;-66
2022/02/25 00:04:51;;;;;;;4.97;3.40;;;;;;;-2.43;75.96;96820.44;5095642;28;20020;-67
2022/02/25 00:07:17;;;;;;;7.35;3.53;;;;;;;-2.45;76.39;96816.97;5095567;28;20489;-67
2022/02/25 00:09:42;;;;;;;7.10;3.20;;;;;;;-2.53;76.54;96813.41;5095600;28;20024;-67
2022/02/25 00:12:08;;;;;;;4.18;3.22;;;;;;;-2.56;76.91;96813.38;5095444;28;20025;-68
2022/02/25 00:14:34;;;;;;;7.50;3.67;;;;;;;-2.65;77.19;96803.78;5095361;28;20028;-68
2022/02/25 00:16:59;;;;;;;7.45;3.58;;;;;;;-2.70;77.15;96810.53;5095391;28;20028;-67
2022/02/25 00:19:25;;;;;;;18.15;12.75;;;;;;;-2.75;77.29;96810.47;5095092;28;20044;-68
2022/02/25 00:21:51;;;;;;;12.98;7.75;;;;;;;-2.72;77.44;96802.84;5095254;28;20028;-65
2022/02/25 00:24:17;;;;;;;8.35;5.60;;;;;;;-2.73;77.79;96802.81;5095301;28;20038;-67
2022/02/25 00:26:43;;;;;;;10.23;5.57;;;;;;;-2.79;77.71;96801.00;5095316;28;20486;-66
2022/02/25 00:29:08;;;;;;;7.03;4.47;;;;;;;-2.79;77.66;96806.97;5095065;28;20020;-66
2022/02/25 00:31:34;;;;;;;9.30;4.38;;;;;;;-2.82;77.62;96803.50;5095053;28;20020;-66
2022/02/25 00:33:59;;;;;;;8.98;4.78;;;;;;;-2.83;77.96;96799.22;5095065;28;20020;-66
2022/02/25 00:36:26;;;;;;;11.30;5.38;;;;;;;-2.79;77.96;96790.75;5094994;28;20024;-66
2022/02/25 00:38:52;;;;;;;9.63;4.45;;;;;;;-2.74;77.66;96795.97;5095111;28;20069;-66
2022/02/25 00:41:17;;;;;;;5.07;4.13;;;;;;;-2.69;77.47;96799.47;5094992;28;20024;-66
2022/02/25 00:43:43;;;;;;;8.23;5.05;;;;;;;-2.63;77.62;96799.56;5094974;28;20118;-66
2022/02/25 00:46:09;;;;;;;10.50;5.28;;;;;;;-2.59;77.85;96782.56;5094804;28;20013;-67
2022/02/25 00:48:35;;;;;;;7.88;4.15;;;;;;;-2.52;77.21;96784.41;5094674;28;20550;-68
2022/02/25 00:51:00;;;;;;;4.75;3.55;;;;;;;-2.51;77.06;96782.69;5094808;28;20039;-68
2022/02/25 00:53:26;;;;;;;7.13;4.13;;;;;;;-2.50;76.83;96789.56;5094561;28;20109;-67
2022/02/25 00:55:51;;;;;;;7.15;4.10;;;;;;;-2.54;76.53;96786.06;5094614;28;20058;-67
2022/02/25 00:58:17;;;;;;;5.88;3.88;;;;;;;-2.56;76.98;96780.06;5094714;28;20462;-67
2022/02/25 01:00:43;;;;;;;6.03;3.40;;;;;;;-2.62;76.74;96772.28;5094560;28;20017;-67
2022/02/25 01:03:08;;;;;;;4.68;3.08;;;;;;;-2.62;77.18;96773.09;5094618;28;20023;-66
2022/02/25 01:05:34;;;;;;;5.50;3.13;;;;;;;-2.63;77.02;96771.41;5094551;28;20489;-66
2022/02/25 01:08:04;;;;;;;7.03;3.50;;;;;;;-2.71;77.38;96763.56;5094337;28;20028;-66
2022/02/25 01:10:30;;;;;;;;;;;;;;;-2.76;77.33;96767.75;5094780;28;20020;-66
2022/02/25 01:12:55;;;;;;;4.88;3.10;;;;;;;-2.76;77.59;96769.44;5093332;28;20266;-67
2022/02/25 01:15:21;;;;;;;4.72;3.00;;;;;;;-2.72;77.35;96768.66;5094190;28;20020;-66
2022/02/25 01:17:46;;;;;;;6.32;3.67;;;;;;;-2.76;77.36;96772.00;5094222;28;20441;-68
2022/02/25 01:20:12;;;;;;;7.72;3.78;;;;;;;-2.78;77.63;96771.97;5093898;28;20043;-68
2022/02/25 01:22:38;;;;;;;5.25;3.42;;;;;;;-2.77;77.66;96766.00;5094209;28;20069;-68
2022/02/25 01:25:05;;;;;;;5.38;3.78;;;;;;;-2.74;77.67;96768.63;5094044;28;20475;-67
2022/02/25 01:27:31;;;;;;;5.00;3.50;;;;;;;-2.74;77.55;96765.22;5094173;28;20016;-67
2022/02/25 01:29:57;;;;;;;7.07;4.13;;;;;;;-2.75;77.59;96766.91;5094068;28;20031;-67
2022/02/25 01:32:22;;;;;;;4.97;3.38;;;;;;;-2.77;77.58;96766.00;5094029;28;20378;-67
2022/02/25 01:34:49;;;;;;;6.15;3.67;;;;;;;-2.75;77.41;96758.34;5093829;28;20031;-67
2022/02/25 01:37:14;;;;;;;6.68;3.22;;;;;;;-2.80;77.38;96753.19;5093907;28;20062;-67
2022/02/25 01:39:40;;;;;;;8.40;3.72;;;;;;;-2.81;77.52;96761.66;5093875;28;20016;-68
2022/02/25 01:42:06;;;;;;;7.10;3.45;;;;;;;-2.80;77.59;96748.91;5093765;28;20053;-68
2022/02/25 01:44:32;;;;;;;7.95;3.80;;;;;;;-2.76;77.18;96754.06;5093716;28;20115;-68
2022/02/25 01:47:05;;;;;;;9.40;3.53;;;;;;;-2.68;77.06;96749.97;5093681;28;20099;-68
2022/02/25 01:49:31;;;;;;;8.80;3.55;;;;;;;-2.64;76.72;96748.31;5093719;28;20393;-68
2022/02/25 01:52:03;;;;;;;8.38;3.88;;;;;;;-2.59;77.03;96745.00;5093656;28;20016;-68
2022/02/25 01:54:30;;;;;;;5.28;3.60;;;;;;;-2.62;76.77;96737.25;5093565;28;20028;-68
2022/02/25 01:56:57;;;;;;;9.65;4.32;;;;;;;-2.61;76.73;96744.13;5093550;28;20035;-68
2022/02/25 01:59:23;;;;;;;6.47;3.80;;;;;;;-2.55;77.22;96736.53;5093437;28;20074;-68
2022/02/25 02:01:49;;;;;;;7.35;4.20;;;;;;;-2.49;76.91;96734.91;5093523;28;20028;-68
2022/02/25 02:04:15;;;;;;;6.65;4.00;;;;;;;-2.42;76.85;96734.16;5093530;28;20024;-68
2022/02/25 02:06:40;;;;;;;5.20;3.80;;;;;;;-2.42;76.21;96729.91;5093487;28;20024;-67
2022/02/25 02:09:07;;;;;;;6.50;3.50;;;;;;;-2.36;76.24;96731.72;5093454;28;20020;-68
2022/02/25 02:11:35;;;;;;;7.05;4.25;;;;;;;-2.31;75.59;96740.34;5093299;28;20024;-67
2022/02/25 02:14:05;;;;;;;9.30;4.25;;;;;;;-2.33;76.14;96734.31;5093514;28;20470;-68
2022/02/25 02:16:31;;;;;;;9.82;5.57;;;;;;;-2.24;75.77;96738.72;5093374;28;20051;-68
2022/02/25 02:18:57;;;;;;;6.35;4.25;;;;;;;-2.30;74.84;96747.19;5093415;28;20032;-68
2022/02/25 02:21:28;;;;;;;6.32;4.05;;;;;;;-2.37;75.16;96735.13;5093125;28;20101;-67
2022/02/25 02:23:57;;;;;;;10.15;4.82;;;;;;;-2.48;75.02;96729.81;5093208;28;20108;-67
2022/02/25 02:26:23;;;;;;;8.05;4.75;;;;;;;-2.49;75.54;96729.78;5093028;28;20351;-67
2022/02/25 02:28:50;;;;;;;6.93;4.03;;;;;;;-2.46;75.24;96730.72;5093184;28;20024;-67
2022/02/25 02:31:16;;;;;;;7.25;3.45;;;;;;;-2.56;75.47;96727.09;5093070;28;20543;-67
2022/02/25 02:33:42;;;;;;;5.70;3.70;;;;;;;-2.57;75.23;96717.69;5093051;28;20080;-67
2022/02/25 02:36:09;;;;;;;4.82;3.20;;;;;;;-2.66;74.83;96722.66;5093093;28;20024;-67
2022/02/25 02:38:35;;;;;;;10.23;6.70;;;;;;;-2.68;75.06;96716.66;5093080;28;20074;-67
2022/02/25 02:41:01;;;;;;;8.35;4.45;;;;;;;-2.85;75.62;96726.59;5093116;28;20024;-68
2022/02/25 02:43:27;;;;;;;5.82;4.68;;;;;;;-2.85;75.67;96730.03;5092995;28;20038;-67
2022/02/25 02:45:54;;;;;;;6.78;4.65;;;;;;;-2.90;75.83;96730.75;5093115;28;20077;-67
2022/02/25 02:48:20;;;;;;;8.27;4.55;;;;;;;-2.86;75.63;96725.72;5093099;28;20466;-67
2022/02/25 02:50:46;;;;;;;5.90;4.22;;;;;;;-2.88;75.48;96724.84;5092870;28;20035;-67
2022/02/25 02:53:12;;;;;;;12.63;6.38;;;;;;;-2.96;75.56;96721.28;5092909;28;20020;-66
2022/02/25 02:55:38;;;;;;;10.10;4.35;;;;;;;-3.00;75.52;96719.50;5092690;28;20051;-66
2022/02/25 02:58:04;;;;;;;7.07;3.95;;;;;;;-3.08;75.78;96720.22;5092909;28;20077;-66
2022/02/25 03:00:30;;;;;;;5.90;4.47;;;;;;;-3.18;76.44;96715.78;5092888;28;20020;-66
2022/02/25 03:02:55;;;;;;;23.35;5.30;;;;;;;-3.20;76.49;96718.28;5092834;28;20650;-66
2022/02/25 03:05:22;;;;;;;7.00;3.67;;;;;;;-3.25;76.93;96714.78;5092860;28;20023;-66
2022/02/25 03:07:48;;;;;;;8.15;3.63;;;;;;;-3.26;77.00;96718.19;5092834;28;20028;-66
2022/02/25 03:10:14;;;;;;;7.38;3.78;;;;;;;-3.24;76.84;96713.09;5074697;28;20158;-67
2022/02/25 03:12:41;;;;;;;4.65;3.35;;;;;;;-3.20;76.73;96717.44;5092827;28;20024;-66
2022/02/25 03:15:08;;;;;;;4.43;3.58;;;;;;;-3.34;76.52;96712.91;5092665;28;20081;-66
2022/02/25 03:17:34;;;;;;;9.30;4.30;;;;;;;-3.35;77.25;96708.63;5092782;28;20116;-66
2022/02/25 03:20:00;;;;;;;7.45;4.38;;;;;;;-3.32;76.90;96701.00;5092617;28;20036;-66
2022/02/25 03:22:27;;;;;;;9.52;4.03;;;;;;;-3.30;76.77;96704.47;5092760;28;20078;-66
2022/02/25 03:24:54;;;;;;;7.45;4.25;;;;;;;-3.24;76.80;96703.72;5092677;28;20016;-66
2022/02/25 03:27:19;;;;;;;5.65;3.88;;;;;;;-3.29;76.50;96707.88;5092659;28;20420;-67
2022/02/25 03:29:45;;;;;;;6.07;3.83;;;;;;;-3.24;76.64;96713.09;5092673;28;20020;-67
2022/02/25 03:32:11;;;;;;;10.75;4.00;;;;;;;-3.32;76.71;96703.56;5092514;28;20462;-66
2022/02/25 03:34:37;;;;;;;5.63;4.30;;;;;;;-3.27;76.54;96711.34;5092491;28;20085;-66
2022/02/25 03:37:04;;;;;;;11.20;4.28;;;;;;;-3.28;76.88;96709.63;5094156;28;20568;-66
2022/02/25 03:39:29;;;;;;;8.27;4.07;;;;;;;-3.23;76.99;96710.56;5096154;28;20028;-66
2022/02/25 03:41:55;;;;;;;6.45;4.47;;;;;;;-3.14;77.03;96714.13;5096130;28;20077;-68
2022/02/25 03:44:21;;;;;;;7.90;4.30;;;;;;;-3.10;76.79;96715.91;5096155;28;20017;-67
2022/02/25 03:46:47;;;;;;;9.63;4.40;;;;;;;-3.09;76.61;96718.50;5096067;28;20024;-67
2022/02/25 03:49:13;;;;;;;10.18;4.57;;;;;;;-3.07;76.67;96721.94;5095977;28;20031;-67
2022/02/25 03:51:39;;;;;;;6.55;4.45;;;;;;;-3.12;76.60;96723.56;5096012;28;20047;-67
2022/02/25 03:54:05;;;;;;;6.97;4.90;;;;;;;-3.10;76.73;96716.75;5095962;28;20039;-67
2022/02/25 03:56:30;;;;;;;9.52;4.53;;;;;;;-3.10;76.74;96719.31;5095873;28;20081;-67
2022/02/25 03:58:56;;;;;;;9.90;4.80;;;;;;;-3.07;76.61;96709.16;5095851;28;20034;-67
2022/02/25 04:01:22;;;;;;;9.45;5.20;;;;;;;-3.06;76.63;96710.03;5095815;28;20073;-67
2022/02/25 04:03:47;;;;;;;10.63;4.60;;;;;;;-3.01;77.01;96716.06;5095720;28;20027;-67
2022/02/25 04:06:13;;;;;;;6.03;4.50;;;;;;;-3.03;77.03;96714.31;5095723;28;20024;-67
2022/02/25 04:08:39;;;;;;;8.45;4.78;;;;;;;-3.00;76.65;96710.13;5095691;28;20024;-67
2022/02/25 04:11:04;;;;;;;6.15;4.20;;;;;;;-3.01;76.80;96717.78;5095615;28;20509;-67
2022/02/25 04:13:30;;;;;;;7.88;4.60;;;;;;;-3.03;76.69;96717.75;5095659;28;20023;-67
2022/02/25 04:15:56;;;;;;;8.85;4.97;;;;;;;-3.00;76.73;96717.81;5095428;28;20081;-67
2022/02/25 04:18:22;;;;;;;9.25;5.47;;;;;;;-3.00;76.85;96714.38;5095431;28;20061;-67
2022/02/25 04:20:47;;;;;;;7.05;4.80;;;;;;;-2.94;77.11;96706.81;5077303;28;20120;-67
2022/02/25 04:23:13;;;;;;;7.85;4.78;;;;;;;-2.90;77.09;96718.84;5095505;28;20012;-67
2022/02/25 04:25:38;;;;;;;13.57;5.72;;;;;;;-2.89;76.91;96714.59;5095311;28;20424;-67
2022/02/25 04:28:04;;;;;;;12.45;5.05;;;;;;;-2.88;76.84;96714.63;5095378;28;20027;-68
2022/02/25 04:30:31;;;;;;;13.98;5.35;;;;;;;-2.93;76.28;96718.78;5095080;28;20370;-67
2022/02/25 04:32:58;;;;;;;11.05;4.75;;;;;;;-3.08;76.18;96707.44;5095104;28;20103;-67
2022/02/25 04:35:24;;;;;;;7.55;4.70;;;;;;;-3.03;76.07;96706.63;5094935;28;20036;-66
2022/02/25 04:37:49;;;;;;;7.07;4.80;;;;;;;-3.07;76.24;96701.47;5095109;28;20073;-66
2022/02/25 04:40:15;;;;;;;8.35;5.38;;;;;;;-3.08;76.42;96704.00;5095081;28;20020;-66
2022/02/25 04:42:43;;;;;;;82.50;52.78;;;;;;;-3.16;76.13;96706.44;5095065;28;20039;-66
2022/02/25 04:45:09;;;;;;;15.93;12.23;;;;;;;-3.20;76.35;96704.63;5094892;28;20470;-66
2022/02/25 04:47:34;;;;;;;11.05;8.90;;;;;;;-3.31;76.76;96709.56;5094643;28;20032;-66
2022/02/25 04:50:00;;;;;;;12.30;8.35;;;;;;;-3.37;76.67;96715.41;5095017;28;20020;-66
2022/02/25 04:52:25;;;;;;;9.60;6.57;;;;;;;-3.35;77.02;96713.75;5094937;28;20070;-66
2022/02/25 04:54:51;;;;;;;10.05;5.65;;;;;;;-3.31;77.12;96709.56;5094781;28;20101;-67
2022/02/25 04:57:17;;;;;;;8.63;6.13;;;;;;;-3.32;76.94;96702.69;5094641;28;20024;-67
2022/02/25 04:59:43;;;;;;;6.40;4.72;;;;;;;-3.31;76.68;96702.72;5094768;28;20469;-67
2022/02/25 05:02:08;;;;;;;8.82;4.78;;;;;;;-3.47;76.70;96699.00;5094582;28;20366;-66
2022/02/25 05:04:34;;;;;;;7.13;4.45;;;;;;;-3.51;76.88;96712.59;5094576;28;20028;-67
2022/02/25 05:07:00;;;;;;;6.63;4.45;;;;;;;-3.59;77.02;96706.44;5094429;28;20385;-67
2022/02/25 05:09:25;;;;;;;6.38;4.25;;;;;;;-3.65;77.39;96706.31;5094445;28;20027;-66
2022/02/25 05:11:51;;;;;;;7.25;4.38;;;;;;;-3.67;77.60;96706.28;5094335;28;20027;-66
2022/02/25 05:22:29;;;;;;;6.18;3.58;;;;;;;-3.73;77.67;96699.31;5094351;28;20392;-66
2022/02/25 05:24:55;;;;;;;8.38;4.70;;;;;;;-3.72;78.53;96711.31;5094179;28;20024;-66
2022/02/25 05:27:21;;;;;;;11.25;5.95;;;;;;;-3.61;78.32;96711.50;5094169;28;20533;-67
2022/02/25 05:29:47;;;;;;;7.60;4.93;;;;;;;-3.55;78.34;96709.09;5094051;28;20028;-67
2022/02/25 05:32:13;;;;;;;8.13;5.38;;;;;;;-3.48;77.94;96707.53;5094001;28;20026;-67
2022/02/25 05:34:39;;;;;;;6.55;4.38;;;;;;;-3.44;78.01;96711.00;5093870;28;20096;-67
2022/02/25 05:37:04;;;;;;;12.07;4.68;;;;;;;-3.39;77.67;96704.28;5075698;28;20115;-67
2022/02/25 05:39:30;;;;;;;12.95;5.05;;;;;;;-3.26;77.41;96707.94;5093940;28;20031;-67
2022/02/25 05:41:56;;;;;;;8.82;5.32;;;;;;;-3.11;77.46;96706.50;5093820;28;20026;-67
2022/02/25 05:44:21;;;;;;;6.05;4.72;;;;;;;-2.11;78.19;96714.13;5093803;28;20378;-67
2022/02/25 05:46:47;;;;;;;6.15;4.00;;;;;;;-0.31;72.31;96718.72;5093939;28;20103;-67
2022/02/25 05:49:13;;;;;;;4.60;3.08;;;;;;;1.57;64.53;96716.09;5093889;28;20020;-67
2022/02/25 05:51:38;;;;;;;5.35;3.35;;;;;;;3.33;59.72;96706.09;5093748;28;20016;-67
2022/02/25 05:54:04;;;;;;;4.50;3.30;;;;;;;4.88;55.55;96705.53;5093682;28;20059;-66
2022/02/25 05:56:29;;;;;;;8.77;7.88;;;;;;;6.31;50.66;96699.91;5093595;28;20020;-67
2022/02/25 05:58:55;;;;;;;7.35;3.10;;;;;;;7.73;47.51;96701.31;5093076;28;20389;-67
2022/02/25 06:01:21;;;;;;;4.38;2.80;;;;;;;8.96;43.86;96696.38;5093502;28;20020;-67
2022/02/25 06:03:47;;;;;;;6.95;3.60;;;;;;;10.10;41.12;96695.47;5093548;28;20103;-66
2022/02/25 06:06:12;;;;;;;5.45;3.50;;;;;;;11.27;39.63;96694.88;5093463;28;20089;-66
2022/02/25 06:08:38;;;;;;;9.70;3.53;;;;;;;12.24;36.76;96700.66;5093369;28;20028;-67
2022/02/25 06:11:03;;;;;;;8.43;3.08;;;;;;;13.20;35.04;96697.38;5093416;28;20016;-67
2022/02/25 06:13:29;;;;;;;5.60;2.97;;;;;;;14.09;33.87;96703.72;5093272;28;20067;-67
2022/02/25 06:15:55;;;;;;;7.20;2.70;;;;;;;14.99;32.09;96698.31;5093203;28;20020;-66
2022/02/25 06:18:21;;;;;;;5.07;2.85;;;;;;;15.76;30.64;96708.22;5093443;28;20482;-66
2022/02/25 06:20:47;;;;;;;4.30;3.08;;;;;;;16.41;30.30;96706.31;5093051;28;20040;-66
2022/02/25 06:23:12;;;;;;;7.35;2.72;;;;;;;17.05;28.99;96707.81;5093401;28;20543;-66
2022/02/25 06:25:38;;;;;;;6.20;2.80;;;;;;;17.57;28.60;96706.47;5093172;28;20069;-66
2022/02/25 06:28:05;;;;;;;6.75;2.80;;;;;;;17.93;28.16;96700.56;5075230;28;20370;-66
2022/02/25 06:30:31;;;;;;;5.95;2.90;;;;;;;18.34;27.69;96697.97;5093151;28;20027;-66
2022/02/25 06:32:56;;;;;;;4.45;2.67;;;;;;;18.73;26.87;96694.50;5093068;28;20020;-66
2022/02/25 06:35:26;;;;;;;4.82;2.40;;;;;;;19.15;26.59;96694.31;5093166;28;20039;-66
2022/02/25 06:37:52;;;;;;;3.60;2.45;;;;;;;19.32;26.37;96696.59;5093320;28;20028;-66
2022/02/25 06:40:18;;;;;;;3.78;2.35;;;;;;;19.69;25.46;96697.56;5093180;28;20378;-66
2022/02/25 06:42:44;;;;;;;4.47;2.45;;;;;;;20.16;25.25;96699.50;5093167;28;20057;-66
2022/02/25 06:45:09;;;;;;;4.00;2.53;;;;;;;20.58;24.95;96701.69;5093129;28;20097;-65
2022/02/25 06:47:35;;;;;;;7.10;2.17;;;;;;;20.89;23.61;96696.66;5093061;28;20020;-65
2022/02/25 06:50:01;;;;;;;5.05;3.17;;;;;;;21.15;22.52;96688.47;5092992;28;20427;-66
2022/02/25 06:52:27;;;;;;;4.15;2.35;;;;;;;21.71;24.41;96700.00;5093026;28;20016;-66
2022/02/25 06:54:53;;;;;;;3.70;2.25;;;;;;;22.09;23.50;96699.69;5093111;28;20369;-66
2022/02/25 06:57:18;;;;;;;3.65;2.38;;;;;;;22.57;22.97;96705.50;5092894;28;20035;-67
2022/02/25 06:59:44;;;;;;;3.83;2.92;;;;;;;22.13;21.91;96700.28;5092946;28;20026;-66
2022/02/25 07:02:10;;;;;;;2.95;2.45;;;;;;;22.47;21.53;96708.13;5092936;28;20020;-66
2022/02/25 07:04:36;;;;;;;4.72;2.67;;;;;;;22.28;21.89;96704.34;5092745;28;20111;-66
2022/02/25 07:07:03;;;;;;;6.35;2.45;;;;;;;22.69;22.58;96701.00;5092782;28;20024;-66
2022/02/25 07:09:29;;;;;;;4.57;2.35;;;;;;;23.19;21.72;96697.63;5092804;28;20016;-66
2022/02/25 07:11:55;;;;;;;3.80;2.78;;;;;;;23.37;21.91;96694.34;5095812;28;20103;-66
2022/02/25 07:14:20;;;;;;;3.53;2.40;;;;;;;22.47;19.22;96693.00;5096763;28;20051;-66
2022/02/25 07:16:46;;;;;;;4.03;2.10;;;;;;;20.97;20.44;96693.44;5096461;28;20030;-66
2022/02/25 07:19:12;;;;;;;4.47;2.70;;;;;;;20.30;21.59;96707.28;5096294;28;20016;-65
2022/02/25 07:21:37;;;;;;;3.45;2.40;;;;;;;20.39;21.20;96705.75;5096633;28;20028;-66
2022/02/25 07:24:03;;;;;;;4.43;2.38;;;;;;;20.33;21.35;96707.06;5096409;28;20048;-65
2022/02/25 07:26:30;;;;;;;6.45;2.63;;;;;;;20.12;21.82;96706.00;5096532;28;20030;-66
2022/02/25 07:28:55;;;;;;;4.78;2.47;;;;;;;20.57;22.84;96705.31;5096499;28;20106;-66
2022/02/25 07:31:21;;;;;;;3.90;2.65;;;;;;;20.94;19.88;96705.16;5096417;28;20079;-66
2022/02/25 07:33:47;;;;;;;2.92;1.88;;;;;;;20.36;20.72;96700.66;5096247;28;20024;-66
2022/02/25 07:36:12;;;;;;;3.00;2.28;;;;;;;20.53;21.54;96709.16;5096143;28;20032;-66
2022/02/25 07:38:38;;;;;;;4.53;2.38;;;;;;;21.11;19.76;96702.13;5078054;28;20501;-65
2022/02/25 07:41:03;;;;;;;3.72;2.30;;;;;;;19.95;21.50;96697.44;5096144;28;20020;-66
2022/02/25 07:43:29;;;;;;;4.10;2.40;;;;;;;19.06;22.05;96701.91;5096199;28;20027;-66
2022/02/25 07:45:55;;;;;;;3.70;2.30;;;;;;;18.75;22.29;96704.03;5096016;28;20016;-66
2022/02/25 07:48:21;;;;;;;4.97;2.35;;;;;;;19.15;22.80;96702.25;5095961;28;20430;-66
2022/02/25 07:50:48;;;;;;;4.22;2.65;;;;;;;17.73;22.18;96711.59;5096032;28;20500;-66
2022/02/25 07:53:14;;;;;;;3.92;2.35;;;;;;;17.72;22.46;96716.03;5095898;28;20035;-65
2022/02/25 07:55:40;;;;;;;4.35;2.60;;;;;;;17.82;25.40;96718.94;5095843;28;20496;-66
2022/02/25 07:58:06;;;;;;;3.78;2.50;;;;;;;17.03;24.44;96716.75;5095756;28;20032;-66
2022/02/25 08:00:32;;;;;;;4.10;2.58;;;;;;;15.93;24.74;96722.25;5095877;28;20028;-65
2022/02/25 08:03:02;;;;;;;3.47;2.30;;;;;;;15.73;25.89;96718.09;5095793;28;20099;-66
2022/02/25 08:05:29;;;;;;;5.43;2.77;;;;;;;15.94;25.57;96726.59;5095746;28;20016;-66
2022/02/25 08:08:01;;;;;;;5.22;2.60;;;;;;;15.72;25.75;96703.22;5095693;28;20024;-66
2022/02/25 08:10:26;;;;;;;4.05;2.60;;;;;;;14.88;26.49;96705.94;5095621;28;20051;-66
2022/02/25 08:12:52;;;;;;;4.93;2.85;;;;;;;14.54;27.20;96703.25;5095555;28;20044;-65
2022/02/25 08:15:18;;;;;;;4.57;2.53;;;;;;;14.30;28.69;96705.38;5095551;28;20123;-65
2022/02/25 08:17:44;;;;;;;4.05;2.55;;;;;;;14.11;28.98;96711.53;5095548;28;20016;-66
2022/02/25 08:20:11;;;;;;;4.75;2.17;;;;;;;13.90;27.94;96701.16;5095136;28;20040;-64
2022/02/25 08:22:36;;;;;;;5.00;2.58;;;;;;;13.99;28.96;96711.22;5094789;28;20032;-64
2022/02/25 08:25:03;;;;;;;4.65;2.33;;;;;;;13.87;28.35;96706.56;5095404;28;20027;-65
2022/02/25 08:27:28;;;;;;;4.85;2.45;;;;;;;13.79;28.69;96706.94;5095293;28;20427;-65
2022/02/25 08:29:54;;;;;;;3.67;2.15;;;;;;;13.80;30.04;96706.00;5095304;28;20024;-65
2022/02/25 08:32:19;;;;;;;6.38;2.55;;;;;;;13.86;28.90;96710.13;5095311;28;20519;-64
2022/02/25 08:34:45;;;;;;;3.58;2.50;;;;;;;13.43;27.34;96713.00;5095189;28;20028;-66
2022/02/25 08:37:11;;;;;;;4.03;2.40;;;;;;;13.03;28.69;96703.38;5094977;28;20024;-66
2022/02/25 08:39:36;;;;;;;5.80;2.70;;;;;;;12.42;29.45;96705.19;5095177;28;20028;-64
2022/02/25 08:42:03;;;;;;;3.47;2.22;;;;;;;11.16;29.72;96703.13;5095032;28;20016;-64
2022/02/25 08:44:29;;;;;;;3.78;1.95;;;;;;;10.84;30.64;96706.06;5095082;28;20024;-66
2022/02/25 08:46:55;;;;;;;3.60;2.35;;;;;;;10.58;31.62;96702.59;5095011;28;20027;-64
2022/02/25 08:49:20;;;;;;;6.90;2.15;;;;;;;10.62;33.28;96696.34;5094782;28;20504;-66
2022/02/25 08:51:47;;;;;;;4.10;2.38;;;;;;;10.27;32.68;96701.91;5094916;28;20032;-64
2022/02/25 08:54:16;;;;;;;4.18;2.50;;;;;;;10.17;34.63;96687.44;5094661;28;20039;-64
2022/02/25 08:56:43;;;;;;;3.58;2.05;;;;;;;9.78;31.43;96697.38;5094522;28;20027;-65
2022/02/25 08:59:09;;;;;;;5.40;2.65;;;;;;;9.62;32.16;96704.84;5094724;28;20017;-66
2022/02/25 09:01:35;;;;;;;3.67;2.25;;;;;;;9.41;32.03;96695.94;5094678;28;20083;-64
2022/02/25 09:04:01;;;;;;;3.22;2.42;;;;;;;9.52;32.95;96699.09;5094518;28;20028;-65
2022/02/25 09:06:29;;;;;;;5.47;2.55;;;;;;;9.68;32.53;96695.97;5094485;28;20035;-66
2022/02/25 09:08:55;;;;;;;4.05;2.15;;;;;;;9.77;32.85;96693.06;5094613;28;20027;-66
2022/02/25 09:11:22;;;;;;;3.17;2.20;;;;;;;9.35;32.44;96686.53;5094435;28;20020;-65
2022/02/25 09:13:48;;;;;;;3.35;2.17;;;;;;;9.28;32.80;96695.47;5094329;28;20036;-64
2022/02/25 09:16:14;;;;;;;4.00;2.60;;;;;;;9.24;33.10;96692.06;5094467;28;20024;-65
2022/02/25 09:18:39;;;;;;;3.70;2.22;;;;;;;9.43;33.19;96687.16;5094421;28;20031;-66
2022/02/25 09:21:05;;;;;;;4.57;2.50;;;;;;;9.59;33.09;96682.31;5094080;28;20052;-66
2022/02/25 09:23:31;;;;;;;4.53;2.22;;;;;;;9.66;33.78;96682.97;5094221;28;20024;-66
2022/02/25 09:25:57;;;;;;;3.40;2.30;;;;;;;9.65;33.31;96681.25;5094195;28;20056;-65
2022/02/25 09:28:24;;;;;;;7.47;3.25;;;;;;;9.75;33.11;96670.53;5094042;28;20016;-66
2022/02/25 09:30:51;;;;;;;7.72;3.08;;;;;;;9.84;35.63;96665.84;5094019;28;20024;-66
2022/02/25 09:33:16;;;;;;;3.75;2.33;;;;;;;10.06;35.06;96661.66;5093877;28;20474;-66
2022/02/25 09:35:42;;;;;;;5.15;2.50;;;;;;;10.03;32.14;96670.47;5093254;28;20032;-64
2022/02/25 09:38:08;;;;;;;3.80;2.33;;;;;;;9.96;32.28;96656.72;5093992;28;20024;-66
2022/02/25 09:40:35;;;;;;;4.47;2.40;;;;;;;9.90;32.63;96651.72;5093824;28;20028;-65
2022/02/25 09:43:01;;;;;;;3.17;2.10;;;;;;;9.88;32.67;96650.06;5093884;28;20439;-65
2022/02/25 09:45:27;;;;;;;4.82;2.90;;;;;;;9.97;33.16;96647.16;5093755;28;20044;-66
2022/02/25 09:47:53;;;;;;;2.38;1.95;;;;;;;10.11;32.90;96647.50;5093769;28;20024;-65
2022/02/25 09:50:20;;;;;;;2.75;1.80;;;;;;;10.03;32.40;96646.94;5093625;28;20024;-66
2022/02/25 09:52:46;;;;;;;3.33;1.80;;;;;;;9.96;31.95;96645.41;5093668;28;20024;-65
2022/02/25 09:55:23;;;;;;;3.15;2.15;;;;;;;9.90;32.97;96643.88;5093725;28;20031;-65
2022/02/25 09:57:49;;;;;;;6.28;2.45;;;;;;;9.76;32.10;96641.72;5093542;28;20547;-66
2022/02/25 10:00:15;;;;;;;4.15;2.35;;;;;;;9.73;35.32;96640.06;5093706;28;20020;-66
2022/02/25 10:02:44;;;;;;;2.58;1.75;;;;;;;9.85;32.05;96637.97;5093618;28;20077;-65
2022/02/25 10:05:12;;;;;;;5.68;2.10;;;;;;;9.91;33.07;96635.16;5093386;28;20043;-65
2022/02/25 10:07:38;;;;;;;3.92;2.20;;;;;;;9.77;32.89;96634.72;5093532;28;20023;-65
2022/02/25 10:10:05;;;;;;;3.10;1.80;;;;;;;9.83;32.57;96639.75;5093383;28;20046;-66
2022/02/25 10:12:31;;;;;;;3.83;1.98;;;;;;;9.90;30.50;96643.03;5093463;28;20024;-65
2022/02/25 10:14:56;;;;;;;3.20;1.83;;;;;;;9.95;31.08;96633.25;5093212;28;20027;-64
2022/02/25 10:17:24;;;;;;;2.08;1.70;;;;;;;9.94;30.52;96631.56;5093269;28;20020;-65
2022/02/25 10:19:58;;;;;;;4.55;1.90;;;;;;;9.96;33.88;96619.28;5093154;28;20059;-65
2022/02/25 10:22:33;;;;;;;2.55;1.75;;;;;;;10.18;32.02;96621.16;5093449;28;20038;-66
2022/02/25 10:25:11;;;;;;;2.50;1.90;;;;;;;10.18;32.15;96618.56;5093369;28;20125;-66
2022/02/25 10:27:39;;;;;;;2.88;2.03;;;;;;;10.09;31.70;96623.19;5093315;28;20024;-66
2022/02/25 10:30:13;;;;;;;2.33;1.75;;;;;;;10.00;33.23;96618.28;5075199;28;20520;-65
2022/02/25 10:32:50;;;;;;;2.05;1.73;;;;;;;9.98;30.45;96609.63;5093121;28;20028;-65
2022/02/25 10:35:21;;;;;;;2.90;2.15;;;;;;;9.95;31.35;96608.00;5093183;28;20031;-64
2022/02/25 10:38:08;;;;;;;2.88;2.13;;;;;;;10.10;29.25;96598.78;5093098;28;20027;-65
2022/02/25 10:40:45;;;;;;;2.72;1.88;;;;;;;10.05;30.71;96595.44;5093122;28;20161;-66
2022/02/25 10:43:17;;;;;;;4.57;2.03;;;;;;;10.05;32.74;96590.22;5093055;28;20414;-65
2022/02/25 10:45:44;;;;;;;4.07;1.98;;;;;;;9.96;30.37;96585.31;5094157;28;20027;-66
2022/02/25 10:48:12;;;;;;;1.98;1.70;;;;;;;9.82;30.64;96593.66;5097199;28;20024;-64
2022/02/25 10:50:48;;;;;;;2.22;1.88;;;;;;;9.81;31.20;96584.94;5079081;28;20031;-65
2022/02/25 10:53:16;;;;;;;2.50;1.80;;;;;;;10.06;32.55;96575.41;5097126;28;20375;-65
2022/02/25 10:55:42;;;;;;;3.40;2.08;;;;;;;10.18;31.14;96568.88;5096929;28;20024;-66
2022/02/25 10:58:08;;;;;;;4.50;1.80;;;;;;;10.16;30.89;96563.72;5097022;28;20406;-66
2022/02/25 11:00:34;;;;;;;4.03;1.90;;;;;;;10.25;30.68;96554.69;5097029;28;20024;-67
2022/02/25 11:03:00;;;;;;;3.92;2.10;;;;;;;10.18;31.66;96555.81;5096875;28;20074;-66
2022/02/25 11:05:34;;;;;;;3.33;1.92;;;;;;;10.35;31.52;96558.66;5096767;28;20469;-66
2022/02/25 11:08:03;;;;;;;5.20;1.98;;;;;;;10.57;30.67;96544.81;5096893;28;20024;-65
2022/02/25 11:10:31;;;;;;;2.40;1.98;;;;;;;10.57;29.69;96544.81;5096720;28;20130;-66
2022/02/25 11:13:01;;;;;;;2.15;1.73;;;;;;;10.49;31.92;96537.28;5096785;28;20489;-65
2022/02/25 11:15:29;;;;;;;2.33;1.58;;;;;;;10.43;32.96;96531.38;5096516;28;20394;-66
2022/02/25 11:17:56;;;;;;;3.17;1.73;;;;;;;10.62;30.58;96536.78;5096549;28;20099;-65
2022/02/25 11:20:24;;;;;;;3.90;1.90;;;;;;;10.62;31.52;96513.25;5096438;28;20051;-66
2022/02/25 11:23:06;;;;;;;3.42;1.83;;;;;;;10.52;30.00;96514.50;5096730;28;20107;-65
2022/02/25 11:25:34;;;;;;;2.03;1.50;;;;;;;10.66;31.51;96514.00;5096656;28;20115;-65
2022/02/25 11:28:00;;;;;;;2.70;1.88;;;;;;;10.84;29.69;96520.28;5096382;28;20036;-66
2022/02/25 11:30:34;;;;;;;2.28;1.70;;;;;;;10.81;31.05;96513.38;5096287;28;20085;-65
2022/02/25 11:33:09;;;;;;;2.15;1.50;;;;;;;10.98;27.21;96511.84;5096358;28;20067;-67
2022/02/25 11:35:54;;;;;;;1.80;1.40;;;;;;;10.95;26.15;96501.50;5096279;28;20032;-65
2022/02/25 11:38:27;;;;;;;2.17;1.58;;;;;;;11.02;25.87;96499.50;5096551;28;20028;-67
2022/02/25 11:41:04;;;;;;;1.98;1.42;;;;;;;10.84;25.23;96507.19;5096378;28;20020;-66